Time;durP1;ratioP1;P1;durP2;ratioP2;P2;SDS_P1;SDS_P2;PMS_P1;PMS_P2;Temp;Humidity;BMP_temperature;BMP_pressure;BME280_temperature;BME280_humidity;BME280_pressure;Samples;Min_cycle;Max_cycle;Signal;HPM_P1;HPM_P2
2021/04/27 00:00:17;;;;;;;8.63;3.13;;;10.40;72.40;;;;;;4965773;28;20026;-95
2021/04/27 00:02:46;;;;;;;12.25;2.92;;;10.30;72.40;;;;;;4979032;28;20027;-95
2021/04/27 00:05:15;;;;;;;6.60;3.08;;;10.20;72.60;;;;;;4963022;28;20027;-94
2021/04/27 00:07:42;;;;;;;8.65;3.08;;;10.20;72.70;;;;;;4961739;28;20042;-96
2021/04/27 00:10:12;;;;;;;8.35;3.35;;;10.10;72.80;;;;;;4964235;28;20037;-93
2021/04/27 00:12:38;;;;;;;6.80;3.60;;;10.10;72.90;;;;;;4963221;28;20027;-93
2021/04/27 00:15:07;;;;;;;7.20;2.80;;;10.10;73.10;;;;;;4963832;28;20070;-95
2021/04/27 00:17:36;;;;;;;5.43;2.67;;;10.10;73.20;;;;;;4967277;28;20093;-96
2021/04/27 00:20:05;;;;;;;7.78;2.65;;;10.00;73.30;;;;;;4980590;28;20094;-96
2021/04/27 00:22:31;;;;;;;7.22;3.13;;;10.00;73.60;;;;;;5011361;28;20019;-95
2021/04/27 00:24:57;;;;;;;3.78;2.10;;;10.00;73.70;;;;;;4995941;28;20031;-95
2021/04/27 00:27:26;;;;;;;18.42;4.38;;;10.00;73.90;;;;;;4978284;28;20026;-96
2021/04/27 00:29:52;;;;;;;12.35;3.55;;;10.00;73.90;;;;;;4978442;28;20031;-96
2021/04/27 00:32:19;;;;;;;8.32;2.97;;;9.90;73.90;;;;;;4976611;28;20107;-96
2021/04/27 00:34:50;;;;;;;2.97;1.70;;;9.90;74.00;;;;;;4976323;28;20035;-96
2021/04/27 00:37:20;;;;;;;8.13;3.15;;;9.90;74.00;;;;;;4960885;28;20043;-95
2021/04/27 00:39:52;;;;;;;9.48;3.17;;;9.90;74.00;;;;;;4976642;28;20026;-96
2021/04/27 00:42:30;;;;;;;8.77;3.50;;;9.90;74.10;;;;;;4994551;28;20034;-96
2021/04/27 00:44:56;;;;;;;7.13;3.50;;;9.90;74.20;;;;;;4972902;28;20138;-96
2021/04/27 00:47:22;;;;;;;6.47;3.33;;;9.80;74.20;;;;;;4975557;28;20035;-95
2021/04/27 00:49:49;;;;;;;6.20;2.50;;;9.80;74.40;;;;;;4990014;28;20030;-96
2021/04/27 00:52:15;;;;;;;9.38;3.30;;;9.70;74.60;;;;;;4991915;28;20023;-95
2021/04/27 00:54:42;;;;;;;9.98;3.60;;;9.70;74.80;;;;;;4974528;28;20046;-96
2021/04/27 00:57:07;;;;;;;8.15;3.03;;;9.60;75.00;;;;;;4973606;28;20046;-95
2021/04/27 00:59:33;;;;;;;6.97;2.97;;;9.60;75.20;;;;;;4991973;28;20019;-96
2021/04/27 01:01:59;;;;;;;6.65;2.75;;;9.60;75.50;;;;;;4973347;28;20031;-95
2021/04/27 01:04:27;;;;;;;7.88;3.70;;;9.60;76.50;;;;;;4973171;28;20033;-95
2021/04/27 01:06:53;;;;;;;5.43;3.65;;;9.50;75.90;;;;;;4990633;28;20058;-96
2021/04/27 01:09:38;;;;;;;5.97;2.72;;;9.50;76.10;;;;;;4989394;28;20078;-95
2021/04/27 01:12:14;;;;;;;9.45;3.58;;;9.50;76.40;;;;;;4975733;28;20041;-96
2021/04/27 01:14:44;;;;;;;7.13;3.53;;;9.40;76.60;;;;;;4975451;28;20031;-96
2021/04/27 01:17:14;;;;;;;12.95;3.70;;;9.40;76.90;;;;;;4974782;28;20106;-95
2021/04/27 01:20:07;;;;;;;4.97;3.90;;;9.30;77.10;;;;;;4981016;28;20026;-94
2021/04/27 01:22:44;;;;;;;9.13;3.60;;;9.20;77.50;;;;;;4980576;28;20031;-95
2021/04/27 01:25:13;;;;;;;10.75;4.95;;;9.20;77.90;;;;;;4978901;28;20043;-95
2021/04/27 01:27:39;;;;;;;10.00;3.63;;;9.20;78.10;;;;;;4993391;28;20019;-95
2021/04/27 01:30:08;;;;;;;7.55;4.20;;;9.20;78.40;;;;;;4992910;28;20058;-95
2021/04/27 01:32:35;;;;;;;11.68;4.30;;;9.20;79.20;;;;;;4972732;28;20035;-94
2021/04/27 01:35:02;;;;;;;10.27;4.40;;;9.20;78.60;;;;;;4982137;28;20027;-95
2021/04/27 01:37:28;;;;;;;8.73;4.15;;;9.20;78.70;;;;;;4974687;28;20030;-94
2021/04/27 01:39:54;;;;;;;12.48;4.43;;;9.20;78.60;;;;;;4972927;28;20061;-95
2021/04/27 01:42:19;;;;;;;6.82;4.13;;;9.20;78.60;;;;;;4970330;28;20031;-94
2021/04/27 01:44:46;;;;;;;8.82;4.18;;;9.20;78.60;;;;;;5002615;28;20042;-94
2021/04/27 01:47:12;;;;;;;12.15;5.55;;;9.30;78.70;;;;;;4987800;28;20031;-94
2021/04/27 01:49:41;;;;;;;10.40;5.30;;;9.20;78.60;;;;;;4971166;28;20115;-95
2021/04/27 01:52:08;;;;;;;10.52;4.07;;;9.20;78.70;;;;;;4987305;28;20030;-95
2021/04/27 01:54:35;;;;;;;7.07;4.13;;;9.20;78.80;;;;;;4989572;28;20027;-95
2021/04/27 01:57:01;;;;;;;15.10;4.40;;;9.20;79.00;;;;;;4994499;28;20026;-95
2021/04/27 01:59:26;;;;;;;11.82;4.03;;;9.20;79.10;;;;;;4979423;28;20038;-96
2021/04/27 02:01:52;;;;;;;9.55;4.40;;;9.20;79.30;;;;;;4980122;28;20023;-95
2021/04/27 02:04:25;;;;;;;6.25;4.43;;;9.20;79.30;;;;;;4988931;28;20027;-94
2021/04/27 02:06:55;;;;;;;7.53;4.53;;;9.20;79.40;;;;;;4966524;28;20031;-94
2021/04/27 02:09:23;;;;;;;8.60;4.57;;;9.20;79.50;;;;;;4991365;28;20027;-94
2021/04/27 02:11:52;;;;;;;14.10;5.22;;;9.20;79.60;;;;;;4972879;28;20104;-95
2021/04/27 02:14:25;;;;;;;11.63;5.00;;;9.10;79.70;;;;;;4968101;28;20437;-95
2021/04/27 02:17:29;;;;;;;8.65;4.43;;;9.00;79.80;;;;;;4963975;28;20521;-94
2021/04/27 02:19:55;;;;;;;8.70;4.10;;;9.00;80.10;;;;;;4921004;29;20048;-94
2021/04/27 02:22:25;;;;;;;8.32;4.95;;;9.00;80.20;;;;;;4907884;29;20032;-94
2021/04/27 02:24:53;;;;;;;7.90;3.90;;;8.90;80.30;;;;;;4904805;29;20028;-95
2021/04/27 02:27:20;;;;;;;9.57;4.80;;;9.00;80.50;;;;;;4904353;29;20041;-95
2021/04/27 02:29:47;;;;;;;9.77;4.78;;;8.90;80.50;;;;;;4905575;29;20054;-96
2021/04/27 02:32:13;;;;;;;8.07;4.40;;;8.90;80.70;;;;;;4919751;29;20034;-95
2021/04/27 02:34:41;;;;;;;10.95;5.53;;;8.90;81.00;;;;;;4904117;29;20566;-94
2021/04/27 02:37:07;;;;;;;12.07;4.70;;;8.80;81.10;;;;;;4905967;29;20087;-94
2021/04/27 02:39:36;;;;;;;14.75;5.00;;;8.70;81.30;;;;;;4905350;29;20039;-94
2021/04/27 02:42:03;;;;;;;12.43;6.32;;;8.70;81.50;;;;;;4903813;29;20044;-94
2021/04/27 02:44:29;;;;;;;11.77;5.82;;;8.70;81.50;;;;;;4921122;29;20059;-94
2021/04/27 02:46:55;;;;;;;13.82;5.50;;;8.70;81.70;;;;;;4921182;29;20040;-96
2021/04/27 02:49:21;;;;;;;11.45;5.47;;;8.70;81.80;;;;;;4920793;29;20036;-94
2021/04/27 02:51:46;;;;;;;9.18;4.97;;;8.60;81.90;;;;;;4903533;29;20039;-94
2021/04/27 02:54:12;;;;;;;11.38;5.22;;;8.60;82.10;;;;;;4959086;28;20054;-94
2021/04/27 02:56:38;;;;;;;13.38;5.40;;;8.60;82.20;;;;;;4960192;28;20035;-94
2021/04/27 02:59:04;;;;;;;6.70;3.88;;;8.60;82.30;;;;;;4977436;28;20166;-95
2021/04/27 03:01:32;;;;;;;7.47;4.55;;;8.60;82.50;;;;;;4979155;28;20038;-94
2021/04/27 03:04:00;;;;;;;10.45;5.63;;;8.60;82.60;;;;;;4961110;28;20034;-95
2021/04/27 03:06:26;;;;;;;6.53;4.65;;;8.60;82.80;;;;;;4979793;28;20022;-94
2021/04/27 03:08:52;;;;;;;8.70;5.18;;;8.60;82.80;;;;;;4981160;28;20034;-95
2021/04/27 03:11:18;;;;;;;14.82;4.82;;;8.60;82.90;;;;;;4998471;28;20029;-95
2021/04/27 03:13:43;;;;;;;8.77;4.82;;;8.60;83.10;;;;;;4965935;28;20049;-95
2021/04/27 03:16:09;;;;;;;13.05;5.68;;;8.60;83.40;;;;;;4995153;28;20015;-95
2021/04/27 03:18:35;;;;;;;12.88;5.35;;;8.60;83.50;;;;;;4981258;28;20038;-95
2021/04/27 03:21:01;;;;;;;14.57;6.10;;;8.60;83.60;;;;;;4998745;28;20027;-95
2021/04/27 03:23:31;;;;;;;11.55;4.97;;;8.50;83.60;;;;;;4997157;28;20031;-94
2021/04/27 03:25:57;;;;;;;6.78;5.18;;;8.50;83.80;;;;;;4997471;28;20083;-94
2021/04/27 03:28:22;;;;;;;13.23;6.28;;;8.50;83.80;;;;;;4978738;28;20029;-95
2021/04/27 03:30:48;;;;;;;10.52;5.97;;;8.60;83.80;;;;;;4991880;28;20117;-95
2021/04/27 03:33:14;;;;;;;10.15;4.22;;;8.60;83.90;;;;;;4984166;28;20054;-96
2021/04/27 03:35:43;;;;;;;11.98;5.70;;;8.60;84.00;;;;;;4997923;28;20023;-95
2021/04/27 03:38:10;;;;;;;18.65;5.22;;;8.60;84.00;;;;;;4965244;28;20049;-95
2021/04/27 03:40:38;;;;;;;11.57;5.60;;;8.70;84.20;;;;;;4981616;28;20039;-95
2021/04/27 03:43:05;;;;;;;10.13;4.90;;;8.70;84.20;;;;;;4963074;28;20065;-95
2021/04/27 03:45:36;;;;;;;19.90;5.70;;;8.70;84.20;;;;;;4961611;28;20057;-95
2021/04/27 03:48:14;;;;;;;16.27;5.35;;;8.70;84.30;;;;;;4962823;28;20023;-96
2021/04/27 03:50:40;;;;;;;8.13;4.78;;;8.70;84.50;;;;;;4962607;28;20058;-95
2021/04/27 03:53:06;;;;;;;12.35;5.40;;;8.70;84.70;;;;;;4964780;28;20018;-95
2021/04/27 03:55:33;;;;;;;5.68;3.58;;;8.70;84.70;;;;;;4949451;28;20097;-95
2021/04/27 03:57:59;;;;;;;15.43;5.03;;;8.70;84.70;;;;;;4968232;28;20042;-96
2021/04/27 04:00:25;;;;;;;11.35;5.15;;;8.80;84.50;;;;;;4965699;28;20035;-95
2021/04/27 04:02:51;;;;;;;12.75;5.68;;;8.80;84.50;;;;;;4980684;28;20509;-95
2021/04/27 04:05:20;;;;;;;7.47;5.05;;;8.80;84.50;;;;;;4963452;28;20030;-95
2021/04/27 04:07:46;;;;;;;13.63;5.72;;;8.80;84.60;;;;;;4978022;28;20114;-95
2021/04/27 04:10:13;;;;;;;8.70;5.10;;;8.80;84.90;;;;;;4959512;28;20458;-94
2021/04/27 04:12:39;;;;;;;12.15;5.97;;;8.70;85.20;;;;;;4976031;28;20027;-94
2021/04/27 04:15:08;;;;;;;12.90;5.38;;;8.70;85.50;;;;;;4959157;28;20046;-95
2021/04/27 04:17:36;;;;;;;9.88;5.15;;;8.70;85.60;;;;;;4960398;28;20043;-95
2021/04/27 04:20:12;;;;;;;15.88;5.50;;;8.70;85.70;;;;;;4976480;28;20019;-94
2021/04/27 04:22:40;;;;;;;11.95;5.25;;;8.80;85.90;;;;;;4959279;28;20022;-95
2021/04/27 04:25:08;;;;;;;14.75;5.88;;;8.80;86.20;;;;;;4959704;28;20034;-94
2021/04/27 04:27:34;;;;;;;12.25;5.63;;;8.80;85.90;;;;;;4959222;28;20034;-95
2021/04/27 04:30:03;;;;;;;10.52;5.00;;;8.80;86.00;;;;;;4979495;28;20102;-95
2021/04/27 04:32:28;;;;;;;8.85;4.57;;;8.80;86.10;;;;;;4964019;28;20042;-95
2021/04/27 04:34:54;;;;;;;11.20;5.10;;;8.70;87.00;;;;;;4982134;28;20027;-95
2021/04/27 04:37:20;;;;;;;14.73;5.45;;;8.70;86.80;;;;;;4965583;28;20039;-95
2021/04/27 04:39:46;;;;;;;10.55;5.72;;;8.70;87.00;;;;;;4946633;28;20023;-95
2021/04/27 04:42:11;;;;;;;9.73;5.25;;;8.70;87.30;;;;;;4961131;28;20035;-95
2021/04/27 04:44:40;;;;;;;11.95;5.53;;;8.70;87.50;;;;;;4978172;28;20051;-94
2021/04/27 04:47:06;;;;;;;9.70;4.82;;;8.70;87.50;;;;;;4977760;28;20045;-95
2021/04/27 04:49:31;;;;;;;16.08;6.03;;;8.70;87.50;;;;;;4979997;28;20027;-96
2021/04/27 04:51:57;;;;;;;12.00;5.35;;;8.70;87.50;;;;;;4962731;28;20485;-95
2021/04/27 04:54:24;;;;;;;12.68;6.18;;;8.70;87.70;;;;;;4978194;28;20031;-96
2021/04/27 04:56:51;;;;;;;11.35;5.75;;;8.70;87.80;;;;;;4963501;28;20107;-95
2021/04/27 04:59:17;;;;;;;12.55;5.93;;;8.70;88.10;;;;;;4964644;28;20054;-94
2021/04/27 05:01:43;;;;;;;13.15;6.47;;;8.60;88.30;;;;;;4980167;28;20019;-94
2021/04/27 05:04:09;;;;;;;18.83;6.63;;;8.60;88.50;;;;;;4963323;28;20027;-95
2021/04/27 05:06:39;;;;;;;16.92;6.13;;;8.60;88.50;;;;;;4979929;28;20038;-94
2021/04/27 05:09:07;;;;;;;11.77;6.40;;;8.60;88.60;;;;;;4963150;28;20059;-95
2021/04/27 05:11:33;;;;;;;16.20;6.03;;;8.60;88.90;;;;;;4962666;28;20184;-95
2021/04/27 05:13:59;;;;;;;11.23;6.10;;;8.50;89.20;;;;;;4980560;28;20274;-94
2021/04/27 05:16:35;;;;;;;13.25;6.63;;;8.50;89.30;;;;;;4970828;28;20019;-96
2021/04/27 05:19:03;;;;;;;11.07;5.47;;;8.60;89.30;;;;;;4979448;28;20015;-95
2021/04/27 05:21:29;;;;;;;14.80;6.53;;;8.50;89.40;;;;;;4990659;28;20027;-95
2021/04/27 05:23:57;;;;;;;13.10;5.93;;;8.50;89.60;;;;;;4989229;28;20031;-95
2021/04/27 05:26:26;;;;;;;11.52;6.55;;;8.50;89.80;;;;;;4987044;28;20019;-96
2021/04/27 05:28:53;;;;;;;15.35;6.47;;;8.50;90.00;;;;;;4965682;28;20023;-94
2021/04/27 05:31:18;;;;;;;16.80;7.13;;;8.40;90.20;;;;;;4978418;28;20027;-94
2021/04/27 05:33:45;;;;;;;14.98;6.75;;;8.40;90.30;;;;;;4960990;28;20030;-94
2021/04/27 05:36:11;;;;;;;15.85;7.38;;;8.40;90.50;;;;;;4960303;28;20057;-93
2021/04/27 05:38:38;;;;;;;13.40;7.22;;;8.40;90.70;;;;;;4960703;28;20094;-94
2021/04/27 05:41:27;;;;;;;13.27;6.28;;;8.30;90.80;;;;;;4962194;28;20049;-94
2021/04/27 05:43:52;;;;;;;12.90;5.97;;;8.30;91.00;;;;;;4977871;28;20105;-94
2021/04/27 05:46:18;;;;;;;11.82;5.70;;;8.40;91.20;;;;;;4961175;28;20089;-95
2021/04/27 05:48:44;;;;;;;11.13;4.88;;;8.40;91.30;;;;;;4992066;28;20694;-95
2021/04/27 05:51:09;;;;;;;10.23;5.55;;;8.40;91.30;;;;;;4960418;28;20030;-93
2021/04/27 05:53:35;;;;;;;14.98;6.93;;;8.50;91.30;;;;;;4960146;28;20397;-93
2021/04/27 05:56:01;;;;;;;12.40;6.20;;;8.60;91.30;;;;;;4980780;28;20418;-93
2021/04/27 05:58:26;;;;;;;12.10;6.03;;;8.60;91.50;;;;;;4944216;28;20039;-94
2021/04/27 06:00:52;;;;;;;12.75;6.22;;;8.60;91.60;;;;;;4979074;28;20098;-95
2021/04/27 06:03:18;;;;;;;13.48;6.55;;;8.70;91.70;;;;;;4961414;28;20034;-95
2021/04/27 06:05:43;;;;;;;12.88;6.32;;;8.70;91.80;;;;;;4964666;28;20317;-95
2021/04/27 06:08:09;;;;;;;16.10;6.60;;;8.70;91.90;;;;;;4967630;28;20125;-95
2021/04/27 06:10:35;;;;;;;18.48;6.90;;;8.70;92.00;;;;;;4982629;28;20035;-94
2021/04/27 06:13:05;;;;;;;16.73;6.78;;;8.70;92.20;;;;;;4965189;28;20439;-95
2021/04/27 06:15:33;;;;;;;16.98;7.47;;;8.70;92.40;;;;;;4997330;28;20022;-94
2021/04/27 06:17:59;;;;;;;23.13;7.88;;;8.70;92.50;;;;;;4964241;28;20035;-95
2021/04/27 06:20:25;;;;;;;14.27;6.70;;;8.80;92.80;;;;;;4968039;28;20065;-96
2021/04/27 06:22:51;;;;;;;18.27;7.65;;;8.70;93.20;;;;;;4979376;28;20034;-96
2021/04/27 06:25:16;;;;;;;17.17;7.90;;;8.80;93.40;;;;;;4981686;28;20030;-95
2021/04/27 06:27:42;;;;;;;19.15;8.95;;;8.80;93.60;;;;;;4964137;28;20034;-95
2021/04/27 06:30:10;;;;;;;17.83;8.50;;;8.80;93.90;;;;;;4964911;28;20026;-95
2021/04/27 06:32:36;;;;;;;18.27;8.77;;;8.90;94.20;;;;;;4966739;28;20126;-94
2021/04/27 06:35:05;;;;;;;19.95;9.50;;;8.90;94.50;;;;;;4980027;28;20050;-95
2021/04/27 06:37:34;;;;;;;17.05;7.55;;;9.00;94.70;;;;;;4983418;28;20030;-95
2021/04/27 06:40:00;;;;;;;18.40;8.38;;;9.00;94.90;;;;;;4994252;28;20038;-94
2021/04/27 06:42:26;;;;;;;22.05;9.00;;;9.10;95.10;;;;;;4972829;28;20039;-95
2021/04/27 06:44:55;;;;;;;20.20;8.80;;;9.20;95.30;;;;;;4993010;28;20054;-94
2021/04/27 06:47:20;;;;;;;19.23;9.65;;;9.20;95.40;;;;;;4953612;28;20032;-94
2021/04/27 06:49:46;;;;;;;19.65;9.25;;;9.20;95.60;;;;;;4960263;29;20098;-93
2021/04/27 06:52:12;;;;;;;16.40;9.10;;;9.30;95.80;;;;;;4962272;28;20038;-94
2021/04/27 06:54:38;;;;;;;23.27;8.48;;;9.40;95.90;;;;;;4960759;28;20086;-94
2021/04/27 06:57:04;;;;;;;18.50;7.30;;;9.40;96.00;;;;;;4977276;28;20051;-94
2021/04/27 06:59:31;;;;;;;16.67;8.27;;;9.50;96.20;;;;;;4978606;28;20015;-96
2021/04/27 07:02:02;;;;;;;15.35;7.88;;;9.50;96.20;;;;;;4951968;29;20113;-95
2021/04/27 07:04:33;;;;;;;18.52;8.20;;;9.60;96.30;;;;;;4947344;29;20020;-94
2021/04/27 07:06:59;;;;;;;;;;;9.70;96.50;;;;;;4964975;29;20015;-95
2021/04/27 07:09:25;;;;;;;17.05;7.43;;;9.70;96.50;;;;;;4958863;29;19974;-94
2021/04/27 07:11:58;;;;;;;16.75;8.27;;;9.80;96.40;;;;;;4958723;29;20023;-94
2021/04/27 07:14:23;;;;;;;16.23;8.23;;;9.80;96.40;;;;;;4938505;29;20122;-94
2021/04/27 07:16:49;;;;;;;14.77;7.30;;;9.80;96.60;;;;;;4940287;29;20035;-94
2021/04/27 07:19:15;;;;;;;13.93;7.00;;;9.80;96.70;;;;;;4957301;28;20063;-94
2021/04/27 07:21:41;;;;;;;15.27;7.30;;;9.80;96.80;;;;;;4959597;29;20027;-92
2021/04/27 07:24:09;;;;;;;13.23;7.28;;;9.90;96.80;;;;;;4943311;28;20022;-93
2021/04/27 07:26:36;;;;;;;14.05;6.40;;;9.90;96.80;;;;;;4946323;29;20031;-93
2021/04/27 07:29:03;;;;;;;17.08;6.78;;;9.90;96.70;;;;;;4941159;29;20027;-94
2021/04/27 07:31:29;;;;;;;12.25;6.60;;;10.00;96.50;;;;;;4957655;29;20058;-92
2021/04/27 07:33:55;;;;;;;14.15;7.00;;;10.10;96.50;;;;;;4940714;29;20086;-93
2021/04/27 07:36:21;;;;;;;13.13;6.78;;;10.10;96.30;;;;;;4957276;29;20063;-94
2021/04/27 07:38:47;;;;;;;12.88;6.53;;;10.20;96.30;;;;;;4940008;29;20033;-94
2021/04/27 07:41:13;;;;;;;13.55;5.35;;;10.20;96.10;;;;;;4957262;29;20023;-94
2021/04/27 07:43:39;;;;;;;11.05;5.65;;;10.40;95.90;;;;;;4957586;29;20035;-94
2021/04/27 07:46:05;;;;;;;11.95;5.47;;;10.50;95.50;;;;;;4955586;28;20110;-93
2021/04/27 07:48:31;;;;;;;13.25;5.20;;;10.60;95.30;;;;;;4939095;28;20061;-94
2021/04/27 07:50:57;;;;;;;11.35;5.80;;;10.70;95.00;;;;;;4938568;28;20035;-94
2021/04/27 07:53:22;;;;;;;10.80;4.22;;;10.80;94.70;;;;;;4955647;28;20508;-94
2021/04/27 07:55:48;;;;;;;8.82;4.53;;;10.90;94.40;;;;;;4959056;28;20035;-95
2021/04/27 07:58:14;;;;;;;10.15;4.80;;;11.00;94.10;;;;;;4947818;28;20039;-93
2021/04/27 08:00:40;;;;;;;8.30;4.28;;;11.00;93.80;;;;;;4923096;29;20032;-96
2021/04/27 08:03:06;;;;;;;10.73;4.28;;;11.00;93.60;;;;;;4935019;29;20032;-94
2021/04/27 08:05:33;;;;;;;9.75;4.43;;;11.10;93.50;;;;;;4938342;29;20020;-94
2021/04/27 08:08:04;;;;;;;7.75;4.15;;;11.00;93.30;;;;;;4931481;29;20055;-95
2021/04/27 08:10:30;;;;;;;9.82;3.95;;;11.00;93.10;;;;;;4927857;29;20036;-95
2021/04/27 08:12:56;;;;;;;10.82;4.38;;;11.00;93.10;;;;;;4948034;29;20483;-94
2021/04/27 08:15:26;;;;;;;7.15;3.95;;;11.10;93.00;;;;;;4962838;29;20035;-96
2021/04/27 08:17:53;;;;;;;11.88;4.53;;;11.20;92.90;;;;;;4944988;29;20090;-94
2021/04/27 08:20:19;;;;;;;6.30;3.15;;;11.20;92.70;;;;;;4953918;28;20027;-95
2021/04/27 08:22:46;;;;;;;7.00;2.90;;;11.40;92.60;;;;;;4961435;29;20039;-94
2021/04/27 08:25:17;;;;;;;11.32;3.35;;;11.50;91.90;;;;;;4945018;29;20038;-94
2021/04/27 08:27:43;;;;;;;8.68;2.67;;;11.60;91.60;;;;;;4940844;29;20094;-95
2021/04/27 08:30:10;;;;;;;12.00;2.83;;;11.70;91.20;;;;;;4937444;29;20073;-94
2021/04/27 08:32:36;;;;;;;7.25;2.20;;;11.80;90.80;;;;;;4938287;29;20074;-95
2021/04/27 08:35:03;;;;;;;8.80;2.10;;;11.90;90.10;;;;;;4940034;29;20031;-94
2021/04/27 08:37:30;;;;;;;6.18;2.60;;;12.00;88.70;;;;;;4955402;29;20043;-94
2021/04/27 08:39:56;;;;;;;5.80;2.80;;;12.10;87.70;;;;;;4957520;29;20026;-93
2021/04/27 08:42:23;;;;;;;7.85;2.53;;;12.20;87.10;;;;;;4941169;29;20019;-94
2021/04/27 08:44:48;;;;;;;6.13;1.90;;;12.30;86.60;;;;;;4948033;28;20055;-94
2021/04/27 08:47:14;;;;;;;6.97;1.83;;;12.50;85.80;;;;;;4959051;28;20234;-93
2021/04/27 08:49:40;;;;;;;5.65;1.75;;;12.60;84.10;;;;;;4966843;28;20027;-93
2021/04/27 08:52:06;;;;;;;6.18;2.50;;;12.70;82.90;;;;;;4961102;28;20505;-93
2021/04/27 08:54:36;;;;;;;6.45;2.10;;;12.70;82.20;;;;;;4975912;28;20019;-94
2021/04/27 08:57:04;;;;;;;7.68;2.10;;;12.80;81.60;;;;;;4968073;28;20038;-94
2021/04/27 08:59:30;;;;;;;4.15;1.85;;;12.80;80.00;;;;;;4964313;28;20038;-93
2021/04/27 09:01:55;;;;;;;5.13;2.15;;;12.70;79.70;;;;;;4960129;28;20098;-94
2021/04/27 09:04:57;;;;;;;6.35;2.30;;;12.80;79.60;;;;;;4963083;28;20254;-94
2021/04/27 09:07:24;;;;;;;4.55;1.90;;;12.70;79.30;;;;;;4900194;29;20091;-94
2021/04/27 09:09:56;;;;;;;3.78;1.40;;;12.60;79.70;;;;;;4901374;29;20108;-93
2021/04/27 09:12:25;;;;;;;5.63;1.60;;;12.40;80.40;;;;;;4881219;29;20103;-93
2021/04/27 09:14:52;;;;;;;3.65;1.40;;;12.20;81.80;;;;;;4882753;29;20132;-95
2021/04/27 09:17:18;;;;;;;5.82;1.70;;;11.90;83.20;;;;;;4881562;29;20144;-93
2021/04/27 09:19:49;;;;;;;4.18;1.23;;;11.70;84.40;;;;;;4899591;29;20123;-93
2021/04/27 09:22:21;;;;;;;3.85;1.15;;;11.70;85.80;;;;;;4900094;29;20407;-94
2021/04/27 09:24:51;;;;;;;6.95;1.50;;;11.50;86.10;;;;;;4900102;29;20115;-95
2021/04/27 09:27:45;;;;;;;10.35;1.50;;;11.40;86.50;;;;;;4884871;29;20033;-94
2021/04/27 09:30:13;;;;;;;5.15;1.30;;;11.30;87.40;;;;;;4883496;29;20040;-94
2021/04/27 09:32:44;;;;;;;4.68;1.10;;;11.30;87.70;;;;;;4899010;29;20036;-94
2021/04/27 09:35:30;;;;;;;4.07;1.17;;;11.30;87.80;;;;;;4881014;29;20554;-93
2021/04/27 09:38:18;;;;;;;4.70;1.13;;;11.20;87.90;;;;;;4912676;29;20048;-93
2021/04/27 09:40:55;;;;;;;8.75;1.30;;;11.20;88.40;;;;;;4914267;28;20050;-94
2021/04/27 09:43:25;;;;;;;5.50;1.30;;;11.10;88.90;;;;;;4957584;28;20470;-94
2021/04/27 09:45:53;;;;;;;3.20;0.77;;;11.10;89.00;;;;;;4952945;28;20054;-94
2021/04/27 09:48:33;;;;;;;2.85;0.50;;;11.00;87.80;;;;;;4960142;28;20034;-94
2021/04/27 09:51:19;;;;;;;9.77;1.60;;;10.80;87.10;;;;;;4960116;28;20035;-95
2021/04/27 09:53:50;;;;;;;2.58;0.73;;;10.70;87.30;;;;;;4959661;28;20493;-94
2021/04/27 09:56:44;;;;;;;1.95;0.55;;;10.70;87.30;;;;;;4948264;28;20027;-94
2021/04/27 09:59:22;;;;;;;2.20;0.52;;;10.60;87.20;;;;;;4955436;28;20083;-94
2021/04/27 10:01:55;;;;;;;1.13;0.60;;;10.60;87.30;;;;;;4971418;28;20560;-95
2021/04/27 10:04:23;;;;;;;1.77;0.52;;;10.70;87.60;;;;;;4938722;28;20118;-93
2021/04/27 10:06:49;;;;;;;2.63;0.77;;;10.70;87.60;;;;;;4971064;28;20023;-94
2021/04/27 10:09:16;;;;;;;2.35;0.85;;;10.70;87.70;;;;;;4938320;28;20038;-95
2021/04/27 10:11:42;;;;;;;5.25;0.85;;;10.80;87.70;;;;;;4970592;28;20037;-94
2021/04/27 10:14:10;;;;;;;2.30;0.75;;;10.80;88.00;;;;;;4969882;28;20547;-95
2021/04/27 10:16:37;;;;;;;1.33;0.50;;;10.90;88.00;;;;;;4947094;28;20038;-94
2021/04/27 10:19:04;;;;;;;4.03;0.68;;;11.00;87.70;;;;;;4965583;28;20038;-93
2021/04/27 10:21:30;;;;;;;2.70;1.02;;;11.10;88.00;;;;;;4963909;28;20026;-94
2021/04/27 10:23:58;;;;;;;0.75;0.45;;;11.10;87.00;;;;;;4945675;28;20042;-94
2021/04/27 10:26:26;;;;;;;3.22;0.52;;;11.20;87.10;;;;;;4965204;28;20025;-94
2021/04/27 10:29:00;;;;;;;3.47;0.57;;;11.20;85.50;;;;;;4963811;28;20029;-94
2021/04/27 10:31:28;;;;;;;2.67;0.52;;;11.30;84.80;;;;;;4940005;29;20027;-94
2021/04/27 10:33:59;;;;;;;1.88;0.50;;;11.30;84.30;;;;;;4940670;29;20103;-93
2021/04/27 10:36:26;;;;;;;;;;;11.30;83.90;;;;;;4940980;29;20039;-93
2021/04/27 10:38:56;;;;;;;3.05;0.70;;;11.40;83.70;;;;;;4941655;29;19915;-93
2021/04/27 10:41:25;;;;;;;1.88;0.65;;;11.40;83.80;;;;;;4942263;29;20430;-93
2021/04/27 10:43:59;;;;;;;3.95;0.93;;;11.40;84.50;;;;;;4954798;28;20027;-94
2021/04/27 10:46:25;;;;;;;6.00;0.93;;;11.40;85.00;;;;;;4956328;29;20118;-92
2021/04/27 10:48:50;;;;;;;1.80;0.73;;;11.40;85.10;;;;;;4956645;29;20023;-95
2021/04/27 10:51:19;;;;;;;5.85;1.02;;;11.40;85.60;;;;;;4939454;29;20035;-95
2021/04/27 10:54:02;;;;;;;3.45;0.90;;;11.50;85.80;;;;;;4939183;28;20035;-95
2021/04/27 10:56:48;;;;;;;1.75;0.80;;;11.50;86.00;;;;;;4940051;29;20035;-94
2021/04/27 10:59:22;;;;;;;6.13;1.00;;;11.50;86.20;;;;;;4943195;29;20023;-94
2021/04/27 11:02:08;;;;;;;4.43;0.90;;;11.50;85.90;;;;;;4941186;29;20055;-94
2021/04/27 11:04:45;;;;;;;2.17;0.90;;;11.60;86.00;;;;;;4938594;29;20101;-95
2021/04/27 11:07:27;;;;;;;3.78;0.95;;;11.60;85.60;;;;;;4941538;29;20379;-95
2021/04/27 11:10:13;;;;;;;6.80;0.82;;;11.70;85.40;;;;;;4937877;29;20062;-94
2021/04/27 11:12:51;;;;;;;2.90;0.95;;;11.80;85.00;;;;;;4931456;28;20118;-94
2021/04/27 11:15:34;;;;;;;2.88;0.82;;;11.90;85.00;;;;;;4941605;29;20031;-95
2021/04/27 11:18:22;;;;;;;4.47;0.82;;;12.00;84.40;;;;;;4945011;29;20097;-96
2021/04/27 11:21:13;;;;;;;6.00;1.00;;;12.10;84.00;;;;;;4941711;29;20026;-94
2021/04/27 11:23:44;;;;;;;5.35;1.40;;;12.20;83.70;;;;;;4939396;29;20023;-94
2021/04/27 11:26:28;;;;;;;;;;;12.30;83.80;;;;;;4963930;29;20031;-93
2021/04/27 11:28:56;;;;;;;5.95;1.25;;;12.40;83.50;;;;;;4952147;29;19997;-94
2021/04/27 11:31:22;;;;;;;5.07;1.40;;;12.40;82.60;;;;;;4969705;28;20054;-94
2021/04/27 11:33:59;;;;;;;4.15;1.38;;;12.40;82.50;;;;;;4936934;29;20023;-95
2021/04/27 11:36:40;;;;;;;9.30;2.80;;;12.50;82.50;;;;;;4929906;29;20031;-95
2021/04/27 11:39:16;;;;;;;6.45;1.35;;;12.40;82.50;;;;;;4921637;29;20039;-96
2021/04/27 11:42:00;;;;;;;3.80;1.10;;;12.50;82.20;;;;;;4922616;29;20060;-92
2021/04/27 11:44:38;;;;;;;8.23;1.60;;;12.60;81.90;;;;;;4946859;28;20039;-92
2021/04/27 11:47:17;;;;;;;7.72;1.60;;;12.70;81.40;;;;;;4942166;29;21163;-91
2021/04/27 11:49:58;;;;;;;4.43;1.80;;;12.80;81.20;;;;;;4967256;28;20391;-91
2021/04/27 11:52:40;;;;;;;5.38;1.60;;;12.90;80.90;;;;;;4924994;29;20034;-93
2021/04/27 11:55:20;;;;;;;4.85;1.77;;;12.90;80.30;;;;;;4958447;29;20039;-92
2021/04/27 11:58:09;;;;;;;4.68;1.50;;;12.90;80.00;;;;;;4944798;29;20038;-92
2021/04/27 12:00:57;;;;;;;8.98;1.60;;;13.00;79.80;;;;;;4961235;29;20051;-93
2021/04/27 12:03:34;;;;;;;5.30;1.30;;;12.90;79.70;;;;;;4940467;29;20027;-93
2021/04/27 12:06:09;;;;;;;5.45;1.50;;;13.00;79.90;;;;;;4938449;29;20126;-93
2021/04/27 12:08:50;;;;;;;5.30;1.20;;;13.10;79.40;;;;;;4929390;29;20035;-94
2021/04/27 12:11:25;;;;;;;;;;;13.10;78.90;;;;;;4945036;29;20031;-91
2021/04/27 12:14:10;;;;;;;7.78;1.50;;;13.20;78.80;;;;;;4955920;28;20334;-93
2021/04/27 12:16:41;;;;;;;7.85;1.65;;;13.30;78.60;;;;;;4962215;28;20045;-92
2021/04/27 12:19:12;;;;;;;3.65;1.25;;;13.40;78.20;;;;;;4979584;28;20495;-95
2021/04/27 12:21:51;;;;;;;5.28;1.20;;;13.40;78.60;;;;;;4962392;28;20054;-93
2021/04/27 12:24:30;;;;;;;6.43;2.20;;;13.40;77.90;;;;;;4961995;28;20035;-92
2021/04/27 12:27:06;;;;;;;6.90;1.92;;;13.50;78.80;;;;;;4962188;28;20505;-92
2021/04/27 12:29:35;;;;;;;4.68;1.48;;;13.50;77.90;;;;;;4962693;28;20535;-94
2021/04/27 12:32:13;;;;;;;5.38;1.90;;;13.60;77.50;;;;;;4979002;28;20031;-94
2021/04/27 12:34:58;;;;;;;5.10;1.42;;;13.40;77.20;;;;;;4962979;28;20153;-94
2021/04/27 12:37:25;;;;;;;6.80;1.95;;;13.40;77.30;;;;;;4963948;28;20133;-92
2021/04/27 12:39:52;;;;;;;4.15;1.80;;;13.40;76.90;;;;;;4981534;28;20501;-92
2021/04/27 12:42:29;;;;;;;8.02;1.95;;;13.40;76.70;;;;;;4966447;28;20026;-92
2021/04/27 12:45:03;;;;;;;5.05;1.58;;;13.30;76.30;;;;;;4956762;28;20055;-92
2021/04/27 12:47:32;;;;;;;5.20;1.60;;;13.30;76.10;;;;;;4944331;29;20065;-93
2021/04/27 12:50:18;;;;;;;3.58;1.80;;;13.30;76.10;;;;;;4960754;29;20027;-92
2021/04/27 12:52:58;;;;;;;6.68;1.65;;;13.30;75.90;;;;;;4940304;29;20027;-93
2021/04/27 12:55:35;;;;;;;1.95;1.15;;;13.30;75.70;;;;;;4943248;29;20082;-93
2021/04/27 12:58:20;;;;;;;2.72;1.20;;;13.30;75.60;;;;;;4960801;28;20522;-93
2021/04/27 13:00:54;;;;;;;5.97;1.52;;;13.40;75.70;;;;;;4957316;29;20031;-92